Time,TemperatureF,DewpointF,PressureIn,WindDirection,WindDirectionDegrees,WindSpeedMPH,WindSpeedGustMPH,Humidity,HourlyPrecipIn,Conditions,Clouds,dailyrainin,SoftwareType,DateUTC
2013-05-20 00:01:00,60.9,60.6,30.16,West,280,1.0,4.0,99,0.00,,---,0.39,VWS V14.01,2013-05-20 04:01:00,
2013-05-20 00:06:00,61.0,60.7,30.16,West,280,0.0,1.0,99,0.00,,---,0.00,VWS V14.01,2013-05-20 04:06:00,
2013-05-20 00:11:00,61.0,60.7,30.16,West,280,0.0,1.0,99,0.00,,---,0.00,VWS V14.01,2013-05-20 04:11:00,
2013-05-20 00:16:00,61.0,60.7,30.16,West,280,0.0,1.0,99,0.00,,---,0.00,VWS V14.01,2013-05-20 04:16:00,
2013-05-20 00:21:00,61.1,60.8,30.16,West,280,0.0,1.0,99,0.00,,---,0.00,VWS V14.01,2013-05-20 04:21:00,
2013-05-20 00:26:00,61.0,60.7,30.16,West,281,0.0,1.0,99,0.00,,---,0.00,VWS V14.01,2013-05-20 04:26:00,
2013-05-20 00:31:00,61.1,60.8,30.16,West,280,0.0,1.0,99,0.00,,---,0.00,VWS V14.01,2013-05-20 04:31:00,
2013-05-20 00:36:00,61.1,60.8,30.16,West,281,0.0,0.0,99,0.00,,---,0.00,VWS V14.01,2013-05-20 04:36:00,
2013-05-20 00:41:00,61.1,60.8,30.15,West,280,0.0,0.0,99,0.00,,---,0.00,VWS V14.01,2013-05-20 04:41:00,
2013-05-20 00:46:00,61.1,60.8,30.15,West,280,0.0,1.0,99,0.00,,---,0.00,VWS V14.01,2013-05-20 04:46:00,
2013-05-20 00:51:00,61.1,60.8,30.15,West,280,0.0,1.0,99,0.00,,---,0.00,VWS V14.01,2013-05-20 04:51:00,
2013-05-20 00:56:00,61.1,60.8,30.15,West,281,0.0,1.0,99,0.00,,---,0.00,VWS V14.01,2013-05-20 04:56:00,
2013-05-20 01:01:00,61.1,60.8,30.15,NW,326,1.0,1.0,99,0.00,,---,0.00,VWS V14.01,2013-05-20 05:01:00,
2013-05-20 01:06:00,61.1,60.8,30.15,NE,34,1.0,2.0,99,0.00,,---,0.00,VWS V14.01,2013-05-20 05:06:00,
2013-05-20 01:11:00,61.0,60.7,30.14,NE,47,1.0,2.0,99,0.00,,---,0.00,VWS V14.01,2013-05-20 05:11:00,
2013-05-20 01:16:00,61.0,60.7,30.14,NE,46,1.0,2.0,99,0.00,,---,0.00,VWS V14.01,2013-05-20 05:16:00,
2013-05-20 01:21:00,61.1,60.8,30.14,NE,47,0.0,2.0,99,0.00,,---,0.00,VWS V14.01,2013-05-20 05:21:00,
2013-05-20 01:26:00,61.1,60.8,30.14,NE,45,0.0,2.0,99,0.00,,---,0.00,VWS V14.01,2013-05-20 05:26:00,
2013-05-20 01:31:00,61.1,60.8,30.14,NE,45,0.0,2.0,99,0.00,,---,0.00,VWS V14.01,2013-05-20 05:31:00,
2013-05-20 01:36:00,61.1,60.8,30.14,NE,45,0.0,0.0,99,0.00,,---,0.00,VWS V14.01,2013-05-20 05:36:00,
2013-05-20 01:41:00,61.1,60.8,30.13,NE,46,0.0,0.0,99,0.00,,---,0.00,VWS V14.01,2013-05-20 05:41:00,
2013-05-20 01:46:00,61.1,60.8,30.13,NE,45,0.0,0.0,99,0.00,,---,0.00,VWS V14.01,2013-05-20 05:46:00,
2013-05-20 01:51:00,61.2,60.9,30.13,NE,45,0.0,0.0,99,0.00,,---,0.00,VWS V14.01,2013-05-20 05:51:00,
2013-05-20 01:56:00,61.2,60.9,30.13,NE,45,0.0,0.0,99,0.00,,---,0.00,VWS V14.01,2013-05-20 05:56:00,
2013-05-20 02:01:00,61.2,60.9,30.13,NE,46,0.0,0.0,99,0.00,,---,0.00,VWS V14.01,2013-05-20 06:01:00,
2013-05-20 02:06:00,61.2,60.9,30.12,NE,45,0.0,0.0,99,0.00,,---,0.00,VWS V14.01,2013-05-20 06:06:00,
2013-05-20 02:11:00,61.2,60.9,30.12,NE,45,0.0,0.0,99,0.00,,---,0.00,VWS V14.01,2013-05-20 06:11:00,
2013-05-20 02:16:00,61.2,60.9,30.12,NE,45,0.0,0.0,99,0.00,,---,0.00,VWS V14.01,2013-05-20 06:16:00,
2013-05-20 02:21:00,61.2,60.9,30.11,NE,45,0.0,0.0,99,0.00,,---,0.00,VWS V14.01,2013-05-20 06:21:00,
2013-05-20 02:26:00,61.2,60.9,30.11,NE,46,0.0,1.0,99,0.00,,---,0.00,VWS V14.01,2013-05-20 06:26:00,
2013-05-20 02:31:00,61.2,60.9,30.11,NE,46,0.0,1.0,99,0.00,,---,0.00,VWS V14.01,2013-05-20 06:31:00,
2013-05-20 02:36:00,61.1,60.8,30.11,NE,46,0.0,1.0,99,0.00,,---,0.00,VWS V14.01,2013-05-20 06:36:00,
2013-05-20 02:41:00,61.1,60.8,30.11,NE,47,0.0,1.0,99,0.00,,---,0.00,VWS V14.01,2013-05-20 06:41:00,
2013-05-20 02:46:00,61.1,60.8,30.10,NE,46,0.0,1.0,99,0.00,,---,0.00,VWS V14.01,2013-05-20 06:46:00,
2013-05-20 02:51:00,61.1,60.8,30.10,NE,46,0.0,1.0,99,0.00,,---,0.00,VWS V14.01,2013-05-20 06:51:00,
2013-05-20 02:56:00,61.1,60.8,30.10,NE,46,0.0,1.0,99,0.00,,---,0.00,VWS V14.01,2013-05-20 06:56:00,
2013-05-20 03:01:00,61.2,60.9,30.10,NE,47,0.0,1.0,99,0.00,,---,0.00,VWS V14.01,2013-05-20 07:01:00,
2013-05-20 03:06:00,61.2,60.9,30.09,NE,46,0.0,0.0,99,0.00,,---,0.00,VWS V14.01,2013-05-20 07:06:00,
2013-05-20 03:11:00,61.2,60.9,30.09,NE,46,0.0,0.0,99,0.00,,---,0.00,VWS V14.01,2013-05-20 07:11:00,
2013-05-20 03:16:00,61.3,61.0,30.09,NE,47,0.0,0.0,99,0.00,,---,0.00,VWS V14.01,2013-05-20 07:16:00,
2013-05-20 03:21:00,61.3,61.0,30.09,NE,46,0.0,0.0,99,0.00,,---,0.00,VWS V14.01,2013-05-20 07:21:00,
2013-05-20 03:26:00,61.4,61.1,30.09,NE,47,0.0,0.0,99,0.00,,---,0.00,VWS V14.01,2013-05-20 07:26:00,
2013-05-20 03:31:00,61.5,61.2,30.08,South,169,0.0,0.0,99,0.00,,---,0.00,VWS V14.01,2013-05-20 07:31:00,
2013-05-20 03:36:00,61.6,61.3,30.08,SSE,150,2.0,2.0,99,0.00,,---,0.00,VWS V14.01,2013-05-20 07:36:00,
2013-05-20 03:41:00,61.8,61.5,30.08,SSW,207,0.0,2.0,99,0.00,,---,0.00,VWS V14.01,2013-05-20 07:41:00,
2013-05-20 03:46:00,61.9,61.6,30.08,SW,214,0.0,2.0,99,0.00,,---,0.00,VWS V14.01,2013-05-20 07:46:00,
2013-05-20 03:51:00,61.9,61.6,30.08,SW,222,0.0,2.0,99,0.00,,---,0.00,VWS V14.01,2013-05-20 07:51:00,
2013-05-20 03:56:00,62.0,61.7,30.09,SW,225,0.0,2.0,99,0.00,,---,0.00,VWS V14.01,2013-05-20 07:56:00,
2013-05-20 04:01:00,62.0,61.7,30.08,SW,224,0.0,2.0,99,0.00,,---,0.00,VWS V14.01,2013-05-20 08:01:00,
2013-05-20 04:06:00,62.1,61.8,30.08,SSW,210,0.0,2.0,99,0.00,,---,0.00,VWS V14.01,2013-05-20 08:06:00,
2013-05-20 04:11:00,62.3,62.0,30.08,SW,219,0.0,2.0,99,0.00,,---,0.00,VWS V14.01,2013-05-20 08:11:00,
2013-05-20 04:16:00,62.6,62.3,30.08,SW,215,2.0,3.0,99,0.00,,---,0.00,VWS V14.01,2013-05-20 08:16:00,
2013-05-20 04:21:00,62.8,62.5,30.08,SW,231,1.0,3.0,99,0.00,,---,0.00,VWS V14.01,2013-05-20 08:21:00,
2013-05-20 04:26:00,62.9,62.6,30.08,SW,222,0.0,3.0,99,0.00,,---,0.00,VWS V14.01,2013-05-20 08:26:00,
2013-05-20 04:31:00,63.1,62.8,30.08,SSE,167,3.0,3.0,99,0.00,,---,0.00,VWS V14.01,2013-05-20 08:31:00,
2013-05-20 04:36:00,63.2,62.9,30.08,SW,214,0.0,3.0,99,0.00,,---,0.00,VWS V14.01,2013-05-20 08:36:00,
2013-05-20 04:41:00,63.3,63.0,30.08,SW,226,1.0,3.0,99,0.00,,---,0.00,VWS V14.01,2013-05-20 08:41:00,
2013-05-20 04:46:00,63.4,63.1,30.08,SW,225,1.0,4.0,99,0.00,,---,0.00,VWS V14.01,2013-05-20 08:46:00,
2013-05-20 04:51:00,63.5,63.2,30.08,SSW,211,2.0,4.0,99,0.00,,---,0.00,VWS V14.01,2013-05-20 08:51:00,
2013-05-20 04:56:00,63.5,63.2,30.08,SW,217,1.0,4.0,99,0.00,,---,0.00,VWS V14.01,2013-05-20 08:56:00,
2013-05-20 05:01:00,63.5,63.2,30.08,WSW,240,2.0,5.0,99,0.00,,---,0.00,VWS V14.01,2013-05-20 09:01:00,
2013-05-20 05:06:00,63.5,63.2,30.08,SSW,204,1.0,3.0,99,0.00,,---,0.00,VWS V14.01,2013-05-20 09:06:00,
2013-05-20 05:11:00,63.6,63.3,30.08,SSW,200,1.0,4.0,99,0.00,,---,0.00,VWS V14.01,2013-05-20 09:11:00,
2013-05-20 05:16:00,63.5,63.2,30.08,SW,225,2.0,4.0,99,0.00,,---,0.00,VWS V14.01,2013-05-20 09:16:00,
2013-05-20 05:21:00,63.6,63.3,30.09,SW,236,0.0,4.0,99,0.00,,---,0.00,VWS V14.01,2013-05-20 09:21:00,
2013-05-20 05:26:00,63.6,63.3,30.09,SW,215,2.0,4.0,99,0.00,,---,0.00,VWS V14.01,2013-05-20 09:26:00,
2013-05-20 05:31:00,63.6,63.3,30.09,SSW,201,3.0,5.0,99,0.00,,---,0.00,VWS V14.01,2013-05-20 09:31:00,
2013-05-20 05:36:00,63.6,63.3,30.09,SSW,203,2.0,3.0,99,0.00,,---,0.00,VWS V14.01,2013-05-20 09:36:00,
2013-05-20 05:41:00,63.6,63.3,30.09,SW,221,3.0,4.0,99,0.00,,---,0.00,VWS V14.01,2013-05-20 09:41:00,
2013-05-20 05:46:00,63.6,63.3,30.09,SW,226,1.0,4.0,99,0.00,,---,0.00,VWS V14.01,2013-05-20 09:46:00,
2013-05-20 05:51:00,63.6,63.3,30.08,SW,226,0.0,4.0,99,0.00,,---,0.00,VWS V14.01,2013-05-20 09:51:00,
2013-05-20 05:56:00,63.6,63.3,30.08,WSW,240,2.0,4.0,99,0.00,,---,0.00,VWS V14.01,2013-05-20 09:56:00,
2013-05-20 06:01:00,63.6,63.3,30.08,SSW,206,1.0,4.0,99,0.00,,---,0.00,VWS V14.01,2013-05-20 10:01:00,
2013-05-20 06:06:00,63.6,63.3,30.08,SW,214,2.0,3.0,99,0.00,,---,0.00,VWS V14.01,2013-05-20 10:06:00,
2013-05-20 06:11:00,63.7,63.4,30.08,South,190,2.0,3.0,99,0.00,,---,0.00,VWS V14.01,2013-05-20 10:11:00,
2013-05-20 06:16:00,63.7,63.4,30.08,SSW,201,1.0,4.0,99,0.00,,---,0.00,VWS V14.01,2013-05-20 10:16:00,
2013-05-20 06:21:00,63.7,63.4,30.08,South,181,1.0,4.0,99,0.00,,---,0.00,VWS V14.01,2013-05-20 10:21:00,
2013-05-20 06:26:00,63.7,63.4,30.08,SW,228,2.0,4.0,99,0.00,,---,0.00,VWS V14.01,2013-05-20 10:26:00,
2013-05-20 06:31:00,63.8,63.5,30.08,SSW,205,2.0,4.0,99,0.00,,---,0.00,VWS V14.01,2013-05-20 10:31:00,
2013-05-20 06:36:00,63.8,63.5,30.08,South,190,2.0,4.0,99,0.00,,---,0.00,VWS V14.01,2013-05-20 10:36:00,
2013-05-20 06:41:00,63.8,63.5,30.08,SW,222,2.0,5.0,99,0.00,,---,0.00,VWS V14.01,2013-05-20 10:41:00,
2013-05-20 06:46:00,63.8,63.5,30.08,SSW,201,1.0,5.0,99,0.00,,---,0.00,VWS V14.01,2013-05-20 10:46:00,
2013-05-20 06:51:00,63.9,63.6,30.08,South,187,2.0,5.0,99,0.00,,---,0.00,VWS V14.01,2013-05-20 10:51:00,
2013-05-20 06:56:00,63.9,63.6,30.08,SSW,194,2.0,5.0,99,0.00,,---,0.00,VWS V14.01,2013-05-20 10:56:00,
2013-05-20 07:01:00,63.9,63.6,30.08,South,191,2.0,5.0,99,0.00,,---,0.00,VWS V14.01,2013-05-20 11:01:00,
2013-05-20 07:06:00,63.9,63.6,30.08,SSW,212,5.0,5.0,99,0.00,,---,0.00,VWS V14.01,2013-05-20 11:06:00,
2013-05-20 07:11:00,63.9,63.6,30.08,SW,221,4.0,5.0,99,0.00,,---,0.00,VWS V14.01,2013-05-20 11:11:00,
2013-05-20 07:16:00,64.0,63.7,30.08,SSW,205,1.0,5.0,99,0.00,,---,0.00,VWS V14.01,2013-05-20 11:16:00,
2013-05-20 07:21:00,64.0,63.7,30.09,SW,226,1.0,5.0,99,0.00,,---,0.00,VWS V14.01,2013-05-20 11:21:00,
2013-05-20 07:26:00,64.0,63.7,30.09,South,177,0.0,5.0,99,0.00,,---,0.00,VWS V14.01,2013-05-20 11:26:00,
2013-05-20 07:31:00,64.1,63.8,30.09,WSW,243,1.0,5.0,99,0.00,,---,0.00,VWS V14.01,2013-05-20 11:31:00,
2013-05-20 07:36:00,64.2,63.9,30.09,SW,236,1.0,3.0,99,0.00,,---,0.00,VWS V14.01,2013-05-20 11:36:00,
2013-05-20 07:41:00,64.2,63.9,30.09,SW,231,1.0,3.0,99,0.00,,---,0.00,VWS V14.01,2013-05-20 11:41:00,
2013-05-20 07:46:00,64.3,64.0,30.10,SW,233,2.0,4.0,99,0.00,,---,0.00,VWS V14.01,2013-05-20 11:46:00,
2013-05-20 07:51:00,64.3,64.0,30.10,SW,226,3.0,4.0,99,0.00,,---,0.00,VWS V14.01,2013-05-20 11:51:00,
2013-05-20 07:56:00,64.4,64.1,30.10,WSW,253,2.0,4.0,99,0.00,,---,0.00,VWS V14.01,2013-05-20 11:56:00,
2013-05-20 08:01:00,64.5,64.2,30.10,WSW,245,4.0,4.0,99,0.00,,---,0.00,VWS V14.01,2013-05-20 12:01:00,
2013-05-20 08:06:00,64.6,64.3,30.10,SW,219,3.0,5.0,99,0.00,,---,0.00,VWS V14.01,2013-05-20 12:06:00,
2013-05-20 08:11:00,64.7,64.4,30.10,WSW,243,1.0,5.0,99,0.00,,---,0.00,VWS V14.01,2013-05-20 12:11:00,
2013-05-20 08:16:00,64.9,64.6,30.10,WSW,239,3.0,5.0,99,0.00,,---,0.00,VWS V14.01,2013-05-20 12:16:00,
2013-05-20 08:21:00,64.9,64.6,30.10,WSW,238,1.0,5.0,99,0.00,,---,0.00,VWS V14.01,2013-05-20 12:21:00,
2013-05-20 08:26:00,65.0,64.7,30.10,WSW,253,4.0,6.0,99,0.00,,---,0.00,VWS V14.01,2013-05-20 12:26:00,
2013-05-20 08:31:00,65.1,64.8,30.11,West,267,1.0,6.0,99,0.00,,---,0.00,VWS V14.01,2013-05-20 12:31:00,
2013-05-20 08:36:00,65.2,64.9,30.11,West,259,4.0,7.0,99,0.00,,---,0.00,VWS V14.01,2013-05-20 12:36:00,
2013-05-20 08:41:00,65.3,65.0,30.11,WSW,252,2.0,7.0,99,0.00,,---,0.00,VWS V14.01,2013-05-20 12:41:00,
2013-05-20 08:46:00,65.4,65.1,30.11,SW,217,1.0,7.0,99,0.00,,---,0.00,VWS V14.01,2013-05-20 12:46:00,
2013-05-20 08:51:00,65.6,65.3,30.11,West,264,1.0,7.0,99,0.00,,---,0.00,VWS V14.01,2013-05-20 12:51:00,
2013-05-20 08:56:00,65.8,65.5,30.11,West,262,1.0,7.0,99,0.00,,---,0.00,VWS V14.01,2013-05-20 12:56:00,
2013-05-20 09:01:00,66.0,65.7,30.11,WNW,283,2.0,7.0,99,0.00,,---,0.00,VWS V14.01,2013-05-20 13:01:00,
2013-05-20 09:06:00,66.0,65.7,30.11,WNW,287,2.0,5.0,99,0.00,,---,0.00,VWS V14.01,2013-05-20 13:06:00,
2013-05-20 09:11:00,66.2,65.9,30.11,West,262,1.0,5.0,99,0.00,,---,0.00,VWS V14.01,2013-05-20 13:11:00,
2013-05-20 09:16:00,66.5,66.2,30.11,WSW,240,4.0,5.0,99,0.00,,---,0.00,VWS V14.01,2013-05-20 13:16:00,
2013-05-20 09:21:00,66.6,66.3,30.10,West,263,2.0,5.0,99,0.00,,---,0.00,VWS V14.01,2013-05-20 13:21:00,
2013-05-20 09:26:00,66.6,66.3,30.10,West,271,1.0,5.0,99,0.00,,---,0.00,VWS V14.01,2013-05-20 13:26:00,
2013-05-20 09:31:00,66.8,66.5,30.10,West,274,1.0,5.0,99,0.00,,---,0.00,VWS V14.01,2013-05-20 13:31:00,
2013-05-20 09:36:00,66.8,66.5,30.10,West,268,3.0,6.0,99,0.00,,---,0.00,VWS V14.01,2013-05-20 13:36:00,
2013-05-20 09:41:00,67.0,66.7,30.10,West,264,4.0,6.0,99,0.00,,---,0.00,VWS V14.01,2013-05-20 13:41:00,
2013-05-20 09:46:00,67.1,66.5,30.10,WSW,243,6.0,6.0,98,0.00,,---,0.00,VWS V14.01,2013-05-20 13:46:00,
2013-05-20 09:51:00,67.2,66.6,30.10,WSW,253,1.0,6.0,98,0.00,,---,0.00,VWS V14.01,2013-05-20 13:51:00,
2013-05-20 09:56:00,67.4,66.8,30.10,WNW,296,3.0,6.0,98,0.00,,---,0.00,VWS V14.01,2013-05-20 13:56:00,
2013-05-20 10:01:00,67.6,67.0,30.10,WNW,290,3.0,6.0,98,0.00,,---,0.00,VWS V14.01,2013-05-20 14:01:00,
2013-05-20 10:06:00,67.8,67.2,30.10,WNW,290,3.0,7.0,98,0.00,,---,0.00,VWS V14.01,2013-05-20 14:06:00,
2013-05-20 10:11:00,67.9,67.3,30.10,West,264,6.0,7.0,98,0.00,,---,0.00,VWS V14.01,2013-05-20 14:11:00,
2013-05-20 10:16:00,68.1,67.5,30.10,WSW,250,3.0,7.0,98,0.00,,---,0.00,VWS V14.01,2013-05-20 14:16:00,
2013-05-20 10:21:00,68.3,67.4,30.10,NW,307,2.0,7.0,97,0.00,,---,0.00,VWS V14.01,2013-05-20 14:21:00,
2013-05-20 10:26:00,68.3,67.4,30.10,West,262,3.0,7.0,97,0.00,,---,0.00,VWS V14.01,2013-05-20 14:26:00,
2013-05-20 10:31:00,68.5,67.6,30.10,WSW,255,5.0,7.0,97,0.00,,---,0.00,VWS V14.01,2013-05-20 14:31:00,
2013-05-20 10:36:00,68.6,67.4,30.10,West,278,3.0,7.0,96,0.00,,---,0.00,VWS V14.01,2013-05-20 14:36:00,
2013-05-20 10:41:00,68.8,67.6,30.10,West,278,2.0,7.0,96,0.00,,---,0.00,VWS V14.01,2013-05-20 14:41:00,
2013-05-20 10:46:00,68.9,67.4,30.10,West,266,3.0,7.0,95,0.00,,---,0.00,VWS V14.01,2013-05-20 14:46:00,
2013-05-20 10:51:00,69.0,67.5,30.10,WSW,248,5.0,7.0,95,0.00,,---,0.00,VWS V14.01,2013-05-20 14:51:00,
2013-05-20 10:56:00,69.2,67.4,30.10,WSW,253,0.0,7.0,94,0.00,,---,0.00,VWS V14.01,2013-05-20 14:56:00,
2013-05-20 11:01:00,67.6,64.9,30.10,ENE,67,3.0,7.0,91,0.00,,---,0.00,VWS V14.01,2013-05-20 15:01:00,
2013-05-20 11:06:00,66.4,64.6,30.10,ENE,63,3.0,4.0,94,0.00,,---,0.00,VWS V14.01,2013-05-20 15:06:00,
2013-05-20 11:11:00,65.9,64.1,30.09,ENE,75,2.0,5.0,94,0.00,,---,0.00,VWS V14.01,2013-05-20 15:11:00,
2013-05-20 11:16:00,66.0,64.5,30.10,ENE,72,2.0,5.0,95,0.00,,---,0.00,VWS V14.01,2013-05-20 15:16:00,
2013-05-20 11:21:00,66.1,64.6,30.10,ENE,63,2.0,5.0,95,0.00,,---,0.00,VWS V14.01,2013-05-20 15:21:00,
2013-05-20 11:26:00,66.1,64.3,30.09,ENE,67,3.0,5.0,94,0.00,,---,0.00,VWS V14.01,2013-05-20 15:26:00,
2013-05-20 11:31:00,65.9,64.1,30.09,SE,129,2.0,5.0,94,0.00,,---,0.00,VWS V14.01,2013-05-20 15:31:00,
2013-05-20 11:36:00,65.7,63.9,30.09,SE,127,2.0,6.0,94,0.00,,---,0.00,VWS V14.01,2013-05-20 15:36:00,
2013-05-20 11:41:00,65.6,63.8,30.09,East,96,2.0,6.0,94,0.00,,---,0.00,VWS V14.01,2013-05-20 15:41:00,
2013-05-20 11:46:00,65.5,63.7,30.09,SSE,152,2.0,6.0,94,0.00,,---,0.00,VWS V14.01,2013-05-20 15:46:00,
2013-05-20 11:51:00,65.7,64.2,30.08,SE,132,5.0,6.0,95,0.00,,---,0.00,VWS V14.01,2013-05-20 15:51:00,
2013-05-20 11:56:00,66.0,64.5,30.09,East,98,1.0,6.0,95,0.00,,---,0.00,VWS V14.01,2013-05-20 15:56:00,
2013-05-20 12:01:00,66.4,64.9,30.09,SE,131,1.0,6.0,95,0.00,,---,0.00,VWS V14.01,2013-05-20 16:01:00,
2013-05-20 12:06:00,66.8,65.0,30.08,ENE,74,1.0,4.0,94,0.00,,---,0.00,VWS V14.01,2013-05-20 16:06:00,
2013-05-20 12:11:00,67.2,65.4,30.08,ESE,113,4.0,5.0,94,0.00,,---,0.00,VWS V14.01,2013-05-20 16:11:00,
2013-05-20 12:16:00,67.2,65.1,30.08,ESE,113,3.0,6.0,93,0.00,,---,0.00,VWS V14.01,2013-05-20 16:16:00,
2013-05-20 12:21:00,66.5,64.1,30.08,East,95,3.0,6.0,92,0.00,,---,0.00,VWS V14.01,2013-05-20 16:21:00,
2013-05-20 12:26:00,65.8,63.4,30.08,SE,127,2.0,6.0,92,0.00,,---,0.00,VWS V14.01,2013-05-20 16:26:00,
2013-05-20 12:31:00,66.0,63.9,30.08,ESE,116,1.0,6.0,93,0.00,,---,0.00,VWS V14.01,2013-05-20 16:31:00,
2013-05-20 12:36:00,66.2,64.1,30.08,SE,145,1.0,3.0,93,0.00,,---,0.00,VWS V14.01,2013-05-20 16:36:00,
2013-05-20 12:41:00,66.6,64.2,30.07,SE,132,2.0,4.0,92,0.00,,---,0.00,VWS V14.01,2013-05-20 16:41:00,
2013-05-20 12:46:00,66.8,64.4,30.07,East,92,1.0,4.0,92,0.00,,---,0.00,VWS V14.01,2013-05-20 16:46:00,
2013-05-20 12:51:00,67.1,65.0,30.07,SE,134,3.0,5.0,93,0.00,,---,0.00,VWS V14.01,2013-05-20 16:51:00,
2013-05-20 12:56:00,67.4,65.3,30.07,ESE,122,4.0,5.0,93,0.00,,---,0.00,VWS V14.01,2013-05-20 16:56:00,
2013-05-20 13:01:00,67.5,65.1,30.06,South,175,1.0,6.0,92,0.00,,---,0.00,VWS V14.01,2013-05-20 17:01:00,
2013-05-20 13:06:00,67.4,65.0,30.06,South,187,2.0,4.0,92,0.00,,---,0.00,VWS V14.01,2013-05-20 17:06:00,
2013-05-20 13:11:00,67.5,65.1,30.06,SSE,153,1.0,4.0,92,0.00,,---,0.00,VWS V14.01,2013-05-20 17:11:00,
2013-05-20 13:16:00,68.2,65.8,30.06,SSE,163,1.0,5.0,92,0.00,,---,0.00,VWS V14.01,2013-05-20 17:16:00,
2013-05-20 13:21:00,69.1,66.7,30.06,ENE,65,0.0,6.0,92,0.00,,---,0.00,VWS V14.01,2013-05-20 17:21:00,
2013-05-20 13:26:00,69.6,66.9,30.06,SE,142,1.0,6.0,91,0.00,,---,0.00,VWS V14.01,2013-05-20 17:26:00,
2013-05-20 13:31:00,69.9,66.8,30.05,SE,135,1.0,2.0,90,0.00,,---,0.00,VWS V14.01,2013-05-20 17:31:00,
2013-05-20 13:36:00,70.2,67.1,30.05,South,184,1.0,5.0,90,0.00,,---,0.00,VWS V14.01,2013-05-20 17:36:00,
2013-05-20 13:41:00,70.7,67.3,30.05,SE,134,0.0,7.0,89,0.00,,---,0.00,VWS V14.01,2013-05-20 17:41:00,
2013-05-20 13:46:00,70.7,67.0,30.04,ESE,121,1.0,7.0,88,0.00,,---,0.00,VWS V14.01,2013-05-20 17:46:00,
2013-05-20 13:51:00,70.3,66.2,30.04,SSE,168,3.0,7.0,87,0.00,,---,0.00,VWS V14.01,2013-05-20 17:51:00,
2013-05-20 13:56:00,69.6,65.9,30.03,East,90,1.0,7.0,88,0.00,,---,0.00,VWS V14.01,2013-05-20 17:56:00,
2013-05-20 14:01:00,69.2,65.8,30.04,SE,136,2.0,7.0,89,0.00,,---,0.00,VWS V14.01,2013-05-20 18:01:00,
2013-05-20 14:06:00,69.2,65.8,30.03,South,188,6.0,6.0,89,0.00,,---,0.00,VWS V14.01,2013-05-20 18:06:00,
2013-05-20 14:11:00,69.4,65.7,30.04,SSW,193,1.0,6.0,88,0.00,,---,0.00,VWS V14.01,2013-05-20 18:11:00,
2013-05-20 14:16:00,68.9,64.6,30.04,ESE,107,2.0,6.0,86,0.00,,---,0.00,VWS V14.01,2013-05-20 18:16:00,
2013-05-20 14:21:00,68.8,64.8,30.04,SE,124,2.0,6.0,87,0.00,,---,0.00,VWS V14.01,2013-05-20 18:21:00,
2013-05-20 14:26:00,69.0,65.0,30.03,East,101,3.0,6.0,87,0.00,,---,0.00,VWS V14.01,2013-05-20 18:26:00,
2013-05-20 14:31:00,69.2,65.2,30.03,East,97,2.0,6.0,87,0.00,,---,0.00,VWS V14.01,2013-05-20 18:31:00,
2013-05-20 14:36:00,69.3,64.9,30.03,SE,131,5.0,6.0,86,0.00,,---,0.00,VWS V14.01,2013-05-20 18:36:00,
2013-05-20 14:41:00,69.3,64.6,30.03,SSE,161,0.0,6.0,85,0.00,,---,0.00,VWS V14.01,2013-05-20 18:41:00,
2013-05-20 14:46:00,69.5,65.1,30.03,SE,134,6.0,8.0,86,0.00,,---,0.00,VWS V14.01,2013-05-20 18:46:00,
2013-05-20 14:51:00,69.3,64.9,30.02,East,94,2.0,8.0,86,0.00,,---,0.00,VWS V14.01,2013-05-20 18:51:00,
2013-05-20 14:56:00,69.5,64.8,30.02,WSW,242,4.0,8.0,85,0.00,,---,0.00,VWS V14.01,2013-05-20 18:56:00,
2013-05-20 15:01:00,69.9,64.8,30.03,ESE,112,2.0,8.0,84,0.00,,---,0.00,VWS V14.01,2013-05-20 19:01:00,
2013-05-20 15:06:00,70.1,65.1,30.02,ESE,109,1.0,7.0,84,0.00,,---,0.00,VWS V14.01,2013-05-20 19:06:00,
2013-05-20 15:11:00,70.3,65.2,30.02,South,191,3.0,7.0,84,0.00,,---,0.00,VWS V14.01,2013-05-20 19:11:00,
2013-05-20 15:16:00,70.5,65.1,30.02,East,96,1.0,7.0,83,0.00,,---,0.00,VWS V14.01,2013-05-20 19:16:00,
2013-05-20 15:21:00,70.4,65.3,30.02,ESE,121,0.0,7.0,84,0.00,,---,0.00,VWS V14.01,2013-05-20 19:21:00,
2013-05-20 15:26:00,70.7,66.3,30.02,SSW,201,4.0,7.0,86,0.00,,---,0.00,VWS V14.01,2013-05-20 19:26:00,
2013-05-20 15:31:00,71.0,66.3,30.02,East,82,3.0,3.0,85,0.00,,---,0.00,VWS V14.01,2013-05-20 19:31:00,
2013-05-20 15:36:00,71.4,66.7,30.02,NE,44,1.0,6.0,85,0.00,,---,0.00,VWS V14.01,2013-05-20 19:36:00,
2013-05-20 15:41:00,71.5,66.8,30.02,ENE,60,0.0,6.0,85,0.00,,---,0.00,VWS V14.01,2013-05-20 19:41:00,
2013-05-20 15:46:00,71.7,66.9,30.02,SSE,155,0.0,7.0,85,0.00,,---,0.00,VWS V14.01,2013-05-20 19:46:00,
2013-05-20 15:51:00,72.0,67.2,30.02,SSW,205,3.0,7.0,85,0.00,,---,0.00,VWS V14.01,2013-05-20 19:51:00,
2013-05-20 15:56:00,72.3,67.9,30.01,SSW,193,3.0,8.0,86,0.00,,---,0.00,VWS V14.01,2013-05-20 19:56:00,
2013-05-20 16:01:00,72.6,67.8,30.01,SSW,211,2.0,3.0,85,0.00,,---,0.00,VWS V14.01,2013-05-20 20:01:00,
2013-05-20 16:06:00,72.7,67.9,30.01,SSE,150,2.0,6.0,85,0.00,,---,0.00,VWS V14.01,2013-05-20 20:06:00,
2013-05-20 16:11:00,72.7,67.9,30.01,South,191,3.0,6.0,85,0.00,,---,0.00,VWS V14.01,2013-05-20 20:11:00,
2013-05-20 16:16:00,72.4,67.6,30.00,South,170,4.0,6.0,85,0.00,,---,0.00,VWS V14.01,2013-05-20 20:16:00,
2013-05-20 16:21:00,72.2,67.8,30.00,SSW,199,3.0,6.0,86,0.00,,---,0.00,VWS V14.01,2013-05-20 20:21:00,
2013-05-20 16:26:00,71.7,67.3,30.00,SSW,192,6.0,8.0,86,0.00,,---,0.00,VWS V14.01,2013-05-20 20:26:00,
2013-05-20 16:31:00,71.2,67.1,30.00,SSW,203,4.0,4.0,87,0.00,,---,0.00,VWS V14.01,2013-05-20 20:31:00,
2013-05-20 16:36:00,71.7,67.6,30.00,South,183,3.0,5.0,87,0.00,,---,0.00,VWS V14.01,2013-05-20 20:36:00,
2013-05-20 16:41:00,72.5,68.1,30.00,SSE,153,5.0,9.0,86,0.00,,---,0.00,VWS V14.01,2013-05-20 20:41:00,
2013-05-20 16:46:00,73.2,68.4,29.99,SSE,162,4.0,9.0,85,0.00,,---,0.00,VWS V14.01,2013-05-20 20:46:00,
2013-05-20 16:51:00,74.1,69.0,29.99,South,170,4.0,9.0,84,0.00,,---,0.00,VWS V14.01,2013-05-20 20:51:00,
2013-05-20 16:56:00,74.2,68.4,29.99,SSW,203,3.0,9.0,82,0.00,,---,0.00,VWS V14.01,2013-05-20 20:56:00,
2013-05-20 17:01:00,74.1,68.6,29.99,SSW,208,2.0,3.0,83,0.00,,---,0.00,VWS V14.01,2013-05-20 21:01:00,
2013-05-20 17:06:00,73.7,68.2,29.99,SE,140,4.0,10.0,83,0.00,,---,0.00,VWS V14.01,2013-05-20 21:06:00,
2013-05-20 17:11:00,72.9,67.8,29.98,South,184,1.0,10.0,84,0.00,,---,0.00,VWS V14.01,2013-05-20 21:11:00,
2013-05-20 17:16:00,72.2,67.1,29.98,SSW,207,6.0,10.0,84,0.00,,---,0.00,VWS V14.01,2013-05-20 21:16:00,
2013-05-20 17:21:00,71.9,67.2,29.99,SSE,160,4.0,10.0,85,0.00,,---,0.00,VWS V14.01,2013-05-20 21:21:00,
2013-05-20 17:26:00,72.0,67.2,29.99,South,169,5.0,10.0,85,0.00,,---,0.00,VWS V14.01,2013-05-20 21:26:00,
2013-05-20 17:31:00,72.4,67.6,29.99,SE,142,1.0,2.0,85,0.00,,---,0.00,VWS V14.01,2013-05-20 21:31:00,
2013-05-20 17:36:00,72.7,67.6,29.98,SSW,193,4.0,7.0,84,0.00,,---,0.00,VWS V14.01,2013-05-20 21:36:00,
2013-05-20 17:41:00,72.7,67.6,29.98,SSW,208,1.0,7.0,84,0.00,,---,0.00,VWS V14.01,2013-05-20 21:41:00,
2013-05-20 17:46:00,72.5,67.4,29.98,South,176,4.0,7.0,84,0.00,,---,0.00,VWS V14.01,2013-05-20 21:46:00,
2013-05-20 17:51:00,71.8,66.7,29.98,ESE,113,3.0,7.0,84,0.00,,---,0.00,VWS V14.01,2013-05-20 21:51:00,
2013-05-20 17:56:00,71.6,67.2,29.98,SE,135,3.0,9.0,86,0.00,,---,0.00,VWS V14.01,2013-05-20 21:56:00,
2013-05-20 18:01:00,71.6,67.2,29.98,SSW,197,1.0,2.0,86,0.00,,---,0.00,VWS V14.01,2013-05-20 22:01:00,
2013-05-20 18:07:00,71.4,67.0,29.98,South,177,5.0,6.0,86,0.00,,---,0.00,VWS V14.01,2013-05-20 22:07:00,
2013-05-20 18:12:00,71.2,67.1,29.98,SE,141,2.0,6.0,87,0.00,,---,0.00,VWS V14.01,2013-05-20 22:12:00,
2013-05-20 18:16:00,71.3,67.6,29.98,SSW,208,0.0,6.0,88,0.00,,---,0.00,VWS V14.01,2013-05-20 22:16:00,
2013-05-20 18:21:00,71.5,67.8,29.98,South,177,2.0,6.0,88,0.00,,---,0.00,VWS V14.01,2013-05-20 22:21:00,
2013-05-20 18:27:00,71.6,67.9,29.98,SE,128,1.0,6.0,88,0.00,,---,0.00,VWS V14.01,2013-05-20 22:27:00,
2013-05-20 18:32:00,71.6,67.5,29.98,South,169,4.0,5.0,87,0.00,,---,0.00,VWS V14.01,2013-05-20 22:32:00,
2013-05-20 18:37:00,71.5,67.8,29.98,SSW,207,2.0,7.0,88,0.00,,---,0.00,VWS V14.01,2013-05-20 22:37:00,
2013-05-20 18:42:00,71.5,67.8,29.98,South,184,3.0,7.0,88,0.00,,---,0.00,VWS V14.01,2013-05-20 22:42:00,
2013-05-20 18:47:00,71.4,67.3,29.98,SE,144,1.0,7.0,87,0.00,,---,0.00,VWS V14.01,2013-05-20 22:47:00,
2013-05-20 18:52:00,71.1,67.4,29.98,SSE,150,3.0,7.0,88,0.00,,---,0.00,VWS V14.01,2013-05-20 22:52:00,
2013-05-20 18:57:00,71.0,67.6,29.98,SSW,205,3.0,7.0,89,0.00,,---,0.00,VWS V14.01,2013-05-20 22:57:00,
2013-05-20 19:02:00,71.2,67.5,29.98,SW,228,3.0,5.0,88,0.00,,---,0.00,VWS V14.01,2013-05-20 23:02:00,
2013-05-20 19:07:00,71.6,67.5,29.98,SW,229,4.0,6.0,87,0.00,,---,0.00,VWS V14.01,2013-05-20 23:07:00,
2013-05-20 19:12:00,72.0,67.6,29.98,SW,224,2.0,7.0,86,0.00,,---,0.00,VWS V14.01,2013-05-20 23:12:00,
2013-05-20 19:17:00,72.2,67.8,29.98,SSW,204,4.0,7.0,86,0.00,,---,0.00,VWS V14.01,2013-05-20 23:17:00,
2013-05-20 19:22:00,72.3,67.9,29.98,SSW,211,3.0,7.0,86,0.00,,---,0.00,VWS V14.01,2013-05-20 23:22:00,
2013-05-20 19:27:00,71.9,67.5,29.99,SSW,200,2.0,7.0,86,0.00,,---,0.00,VWS V14.01,2013-05-20 23:27:00,
2013-05-20 19:32:00,71.8,67.4,29.99,SSE,162,3.0,3.0,86,0.00,,---,0.00,VWS V14.01,2013-05-20 23:32:00,
2013-05-20 19:37:00,71.6,67.2,29.99,South,179,2.0,3.0,86,0.00,,---,0.00,VWS V14.01,2013-05-20 23:37:00,
2013-05-20 19:42:00,71.3,67.2,29.99,SSE,153,3.0,6.0,87,0.00,,---,0.00,VWS V14.01,2013-05-20 23:42:00,
2013-05-20 19:47:00,70.9,66.8,29.98,SSW,198,3.0,6.0,87,0.00,,---,0.00,VWS V14.01,2013-05-20 23:47:00,
2013-05-20 19:52:00,70.6,66.9,29.98,SSE,158,1.0,6.0,88,0.00,,---,0.00,VWS V14.01,2013-05-20 23:52:00,
2013-05-20 19:57:00,70.1,66.4,29.98,South,183,5.0,6.0,88,0.00,,---,0.00,VWS V14.01,2013-05-20 23:57:00,
2013-05-20 20:02:00,69.6,66.2,29.98,South,175,2.0,3.0,89,0.00,,---,0.00,VWS V14.01,2013-05-21 00:02:00,
2013-05-20 20:07:00,69.2,66.2,29.98,SSW,206,1.0,4.0,90,0.00,,---,0.00,VWS V14.01,2013-05-21 00:07:00,
2013-05-20 20:12:00,68.9,65.8,29.98,SSW,198,5.0,6.0,90,0.00,,---,0.00,VWS V14.01,2013-05-21 00:12:00,
2013-05-20 20:17:00,68.7,66.0,29.98,SSW,204,2.0,6.0,91,0.00,,---,0.00,VWS V14.01,2013-05-21 00:17:00,
2013-05-20 20:22:00,68.7,66.3,29.98,SSW,203,1.0,6.0,92,0.00,,---,0.00,VWS V14.01,2013-05-21 00:22:00,
2013-05-20 20:27:00,68.7,66.3,29.98,SSW,208,2.0,6.0,92,0.00,,---,0.00,VWS V14.01,2013-05-21 00:27:00,
2013-05-20 20:32:00,68.7,66.3,29.98,SSE,152,3.0,3.0,92,0.00,,---,0.00,VWS V14.01,2013-05-21 00:32:00,
2013-05-20 20:37:00,68.8,66.4,29.98,SSW,206,2.0,3.0,92,0.00,,---,0.00,VWS V14.01,2013-05-21 00:37:00,
2013-05-20 20:42:00,68.9,66.5,29.98,SW,221,1.0,3.0,92,0.00,,---,0.00,VWS V14.01,2013-05-21 00:42:00,
2013-05-20 20:47:00,68.9,66.5,29.99,SSW,208,1.0,3.0,92,0.00,,---,0.00,VWS V14.01,2013-05-21 00:47:00,
2013-05-20 20:52:00,68.9,66.5,29.99,SSW,203,1.0,3.0,92,0.00,,---,0.00,VWS V14.01,2013-05-21 00:52:00,
2013-05-20 20:57:00,68.9,66.8,29.99,SW,219,0.0,3.0,93,0.00,,---,0.00,VWS V14.01,2013-05-21 00:57:00,
2013-05-20 21:02:00,68.9,66.8,29.99,SW,215,1.0,1.0,93,0.00,,---,0.00,VWS V14.01,2013-05-21 01:02:00,
2013-05-20 21:07:00,68.9,66.8,29.99,SSW,201,0.0,2.0,93,0.00,,---,0.00,VWS V14.01,2013-05-21 01:07:00,
2013-05-20 21:12:00,68.8,66.7,29.99,SSW,198,0.0,2.0,93,0.00,,---,0.00,VWS V14.01,2013-05-21 01:12:00,
2013-05-20 21:17:00,68.5,66.4,29.99,SE,129,0.0,2.0,93,0.00,,---,0.00,VWS V14.01,2013-05-21 01:17:00,
2013-05-20 21:22:00,68.2,66.1,29.99,South,169,0.0,2.0,93,0.00,,---,0.00,VWS V14.01,2013-05-21 01:22:00,
2013-05-20 21:27:00,68.0,65.9,29.99,South,169,0.0,2.0,93,0.00,,---,0.00,VWS V14.01,2013-05-21 01:27:00,
2013-05-20 21:32:00,67.9,66.1,29.99,SSW,201,1.0,1.0,94,0.00,,---,0.00,VWS V14.01,2013-05-21 01:32:00,
2013-05-20 21:37:00,67.7,65.9,29.99,SSW,197,0.0,1.0,94,0.00,,---,0.00,VWS V14.01,2013-05-21 01:37:00,
2013-05-20 21:42:00,67.5,65.7,30.00,South,178,0.0,1.0,94,0.00,,---,0.00,VWS V14.01,2013-05-21 01:42:00,
2013-05-20 21:47:00,67.4,65.6,30.00,South,180,0.0,1.0,94,0.00,,---,0.00,VWS V14.01,2013-05-21 01:47:00,
2013-05-20 21:52:00,67.3,65.5,29.99,SSW,200,0.0,1.0,94,0.00,,---,0.00,VWS V14.01,2013-05-21 01:52:00,
2013-05-20 21:57:00,67.3,65.8,30.00,SW,224,1.0,2.0,95,0.00,,---,0.00,VWS V14.01,2013-05-21 01:57:00,
2013-05-20 22:02:00,67.5,66.0,30.00,SSW,205,0.0,0.0,95,0.00,,---,0.00,VWS V14.01,2013-05-21 02:02:00,
2013-05-20 22:07:00,67.7,66.2,30.00,SW,214,0.0,2.0,95,0.00,,---,0.00,VWS V14.01,2013-05-21 02:07:00,
2013-05-20 22:12:00,67.8,66.3,30.00,SSW,212,1.0,3.0,95,0.00,,---,0.00,VWS V14.01,2013-05-21 02:12:00,
2013-05-20 22:17:00,68.0,66.5,30.00,SSW,200,1.0,4.0,95,0.00,,---,0.00,VWS V14.01,2013-05-21 02:17:00,
2013-05-20 22:22:00,68.2,66.7,29.99,SSW,206,1.0,4.0,95,0.00,,---,0.00,VWS V14.01,2013-05-21 02:22:00,
2013-05-20 22:27:00,68.3,66.5,29.99,SSW,207,1.0,4.0,94,0.00,,---,0.00,VWS V14.01,2013-05-21 02:27:00,
2013-05-20 22:32:00,68.2,66.4,29.99,SSW,193,2.0,3.0,94,0.00,,---,0.00,VWS V14.01,2013-05-21 02:32:00,
2013-05-20 22:37:00,68.1,66.3,30.00,SSW,201,1.0,3.0,94,0.00,,---,0.00,VWS V14.01,2013-05-21 02:37:00,
2013-05-20 22:42:00,68.1,66.3,29.99,SSW,204,4.0,5.0,94,0.00,,---,0.00,VWS V14.01,2013-05-21 02:42:00,
2013-05-20 22:47:00,68.1,66.3,29.99,SSW,204,1.0,5.0,94,0.00,,---,0.00,VWS V14.01,2013-05-21 02:47:00,
2013-05-20 22:52:00,68.1,66.3,29.99,WSW,243,2.0,5.0,94,0.00,,---,0.00,VWS V14.01,2013-05-21 02:52:00,
2013-05-20 22:57:00,68.1,66.3,29.99,WSW,250,2.0,5.0,94,0.00,,---,0.00,VWS V14.01,2013-05-21 02:57:00,
2013-05-20 23:02:00,68.1,66.3,30.00,SW,229,3.0,3.0,94,0.00,,---,0.00,VWS V14.01,2013-05-21 03:02:00,
2013-05-20 23:07:00,68.1,66.3,30.00,West,259,5.0,5.0,94,0.00,,---,0.00,VWS V14.01,2013-05-21 03:07:00,
2013-05-20 23:12:00,68.2,66.4,30.00,SW,231,3.0,5.0,94,0.00,,---,0.00,VWS V14.01,2013-05-21 03:12:00,
2013-05-20 23:17:00,68.2,66.4,29.99,WSW,249,4.0,5.0,94,0.00,,---,0.00,VWS V14.01,2013-05-21 03:17:00,
2013-05-20 23:22:00,68.1,66.3,29.99,SW,231,1.0,5.0,94,0.00,,---,0.00,VWS V14.01,2013-05-21 03:22:00,
2013-05-20 23:27:00,68.1,66.3,29.99,SSW,210,1.0,5.0,94,0.00,,---,0.00,VWS V14.01,2013-05-21 03:27:00,
2013-05-20 23:32:00,68.0,66.2,29.99,SW,230,1.0,1.0,94,0.00,,---,0.00,VWS V14.01,2013-05-21 03:32:00,
2013-05-20 23:37:00,67.9,66.1,29.99,SW,222,1.0,2.0,94,0.00,,---,0.00,VWS V14.01,2013-05-21 03:37:00,
2013-05-20 23:42:00,67.8,66.0,29.98,SSW,204,1.0,2.0,94,0.00,,---,0.00,VWS V14.01,2013-05-21 03:42:00,
2013-05-20 23:47:00,67.7,65.9,29.98,SSW,194,0.0,2.0,94,0.00,,---,0.00,VWS V14.01,2013-05-21 03:47:00,
2013-05-20 23:52:00,67.5,65.7,29.98,SSW,200,1.0,2.0,94,0.00,,---,0.00,VWS V14.01,2013-05-21 03:52:00,
2013-05-20 23:57:00,67.4,65.6,29.98,SSW,200,1.0,2.0,94,0.00,,---,0.00,VWS V14.01,2013-05-21 03:57:00,